sensor_id;sensor_type;location;lat;lon;timestamp;temperature;humidity
7317;DHT22;3699;51.462;6.696;2023-08-24T00:00:17;19.40;99.90
7317;DHT22;3699;51.462;6.696;2023-08-24T00:02:43;19.50;99.90
7317;DHT22;3699;51.462;6.696;2023-08-24T00:05:10;19.30;99.90
7317;DHT22;3699;51.462;6.696;2023-08-24T00:07:38;19.30;99.90
7317;DHT22;3699;51.462;6.696;2023-08-24T00:10:06;19.30;99.90
7317;DHT22;3699;51.462;6.696;2023-08-24T00:12:33;19.20;99.90
7317;DHT22;3699;51.462;6.696;2023-08-24T00:15:01;19.50;99.90
7317;DHT22;3699;51.462;6.696;2023-08-24T00:17:29;19.50;99.90
7317;DHT22;3699;51.462;6.696;2023-08-24T00:19:56;19.60;99.90
7317;DHT22;3699;51.462;6.696;2023-08-24T00:22:23;19.40;99.90
7317;DHT22;3699;51.462;6.696;2023-08-24T00:24:49;19.60;99.90
7317;DHT22;3699;51.462;6.696;2023-08-24T00:27:16;19.80;99.90
7317;DHT22;3699;51.462;6.696;2023-08-24T00:29:43;19.70;99.90
7317;DHT22;3699;51.462;6.696;2023-08-24T00:32:10;19.60;99.90
7317;DHT22;3699;51.462;6.696;2023-08-24T00:34:38;19.40;99.90
7317;DHT22;3699;51.462;6.696;2023-08-24T00:37:05;19.70;99.90
7317;DHT22;3699;51.462;6.696;2023-08-24T00:39:32;19.70;99.90
7317;DHT22;3699;51.462;6.696;2023-08-24T00:41:58;19.60;99.90
7317;DHT22;3699;51.462;6.696;2023-08-24T00:44:25;17.90;99.90
7317;DHT22;3699;51.462;6.696;2023-08-24T00:46:52;19.50;99.90
7317;DHT22;3699;51.462;6.696;2023-08-24T00:49:20;19.20;99.90
7317;DHT22;3699;51.462;6.696;2023-08-24T00:51:48;19.30;99.90
7317;DHT22;3699;51.462;6.696;2023-08-24T00:54:17;19.20;99.90
7317;DHT22;3699;51.462;6.696;2023-08-24T00:56:44;19.10;99.90
7317;DHT22;3699;51.462;6.696;2023-08-24T00:59:11;19.20;99.90
7317;DHT22;3699;51.462;6.696;2023-08-24T01:01:39;19.10;99.90
7317;DHT22;3699;51.462;6.696;2023-08-24T01:04:08;19.00;99.90
7317;DHT22;3699;51.462;6.696;2023-08-24T01:06:36;18.90;99.90
7317;DHT22;3699;51.462;6.696;2023-08-24T01:09:05;18.90;99.90
7317;DHT22;3699;51.462;6.696;2023-08-24T01:11:40;16.90;99.90
7317;DHT22;3699;51.462;6.696;2023-08-24T01:14:17;18.80;99.90
7317;DHT22;3699;51.462;6.696;2023-08-24T01:16:46;18.80;99.90
7317;DHT22;3699;51.462;6.696;2023-08-24T01:19:25;18.80;99.90
7317;DHT22;3699;51.462;6.696;2023-08-24T01:21:58;18.80;99.90
7317;DHT22;3699;51.462;6.696;2023-08-24T01:24:35;18.80;99.90
7317;DHT22;3699;51.462;6.696;2023-08-24T01:27:05;19.00;99.90
7317;DHT22;3699;51.462;6.696;2023-08-24T01:29:32;18.80;99.90
7317;DHT22;3699;51.462;6.696;2023-08-24T01:31:59;19.20;99.90
7317;DHT22;3699;51.462;6.696;2023-08-24T01:34:26;18.80;99.90
7317;DHT22;3699;51.462;6.696;2023-08-24T01:36:52;18.80;99.90
7317;DHT22;3699;51.462;6.696;2023-08-24T01:39:29;18.80;99.90
7317;DHT22;3699;51.462;6.696;2023-08-24T01:41:58;18.80;99.90
7317;DHT22;3699;51.462;6.696;2023-08-24T01:44:29;18.70;99.90
7317;DHT22;3699;51.462;6.696;2023-08-24T01:46:56;18.70;99.90
7317;DHT22;3699;51.462;6.696;2023-08-24T01:49:24;18.70;99.90
7317;DHT22;3699;51.462;6.696;2023-08-24T01:51:52;18.60;99.90
7317;DHT22;3699;51.462;6.696;2023-08-24T01:54:19;18.80;99.90
7317;DHT22;3699;51.462;6.696;2023-08-24T01:56:46;18.80;99.90
7317;DHT22;3699;51.462;6.696;2023-08-24T01:59:13;18.80;99.90
7317;DHT22;3699;51.462;6.696;2023-08-24T02:01:41;18.80;99.90
7317;DHT22;3699;51.462;6.696;2023-08-24T02:04:08;18.80;99.90
7317;DHT22;3699;51.462;6.696;2023-08-24T02:06:35;18.80;99.90
7317;DHT22;3699;51.462;6.696;2023-08-24T02:09:01;18.80;99.90
7317;DHT22;3699;51.462;6.696;2023-08-24T02:11:29;18.60;99.90
7317;DHT22;3699;51.462;6.696;2023-08-24T02:13:56;18.70;99.90
7317;DHT22;3699;51.462;6.696;2023-08-24T02:16:23;18.70;99.90
7317;DHT22;3699;51.462;6.696;2023-08-24T02:18:51;18.70;99.90
7317;DHT22;3699;51.462;6.696;2023-08-24T02:21:17;18.70;99.90
7317;DHT22;3699;51.462;6.696;2023-08-24T02:23:44;18.60;99.90
7317;DHT22;3699;51.462;6.696;2023-08-24T02:26:11;18.60;99.90
7317;DHT22;3699;51.462;6.696;2023-08-24T02:28:38;18.60;99.90
7317;DHT22;3699;51.462;6.696;2023-08-24T02:31:05;18.40;99.90
7317;DHT22;3699;51.462;6.696;2023-08-24T02:33:32;18.60;99.90
7317;DHT22;3699;51.462;6.696;2023-08-24T02:36:00;18.60;99.90
7317;DHT22;3699;51.462;6.696;2023-08-24T02:38:27;18.50;99.90
7317;DHT22;3699;51.462;6.696;2023-08-24T02:41:01;18.50;99.90
7317;DHT22;3699;51.462;6.696;2023-08-24T02:43:30;18.50;99.90
7317;DHT22;3699;51.462;6.696;2023-08-24T02:46:00;18.50;99.90
7317;DHT22;3699;51.462;6.696;2023-08-24T02:48:28;18.50;99.90
7317;DHT22;3699;51.462;6.696;2023-08-24T02:50:56;18.90;99.90
7317;DHT22;3699;51.462;6.696;2023-08-24T02:53:24;18.60;99.90
7317;DHT22;3699;51.462;6.696;2023-08-24T02:55:51;18.60;99.90
7317;DHT22;3699;51.462;6.696;2023-08-24T02:58:18;18.60;99.90
7317;DHT22;3699;51.462;6.696;2023-08-24T03:00:44;18.60;99.90
7317;DHT22;3699;51.462;6.696;2023-08-24T03:03:13;18.60;99.90
7317;DHT22;3699;51.462;6.696;2023-08-24T03:05:40;18.60;99.90
7317;DHT22;3699;51.462;6.696;2023-08-24T03:08:06;18.50;99.90
7317;DHT22;3699;51.462;6.696;2023-08-24T03:10:36;18.50;99.90
7317;DHT22;3699;51.462;6.696;2023-08-24T03:13:03;18.70;99.90
7317;DHT22;3699;51.462;6.696;2023-08-24T03:15:30;18.50;99.90
7317;DHT22;3699;51.462;6.696;2023-08-24T03:17:57;18.60;99.90
7317;DHT22;3699;51.462;6.696;2023-08-24T03:20:30;18.60;99.90
7317;DHT22;3699;51.462;6.696;2023-08-24T03:22:56;18.60;99.90
7317;DHT22;3699;51.462;6.696;2023-08-24T03:25:24;19.20;99.90
7317;DHT22;3699;51.462;6.696;2023-08-24T03:27:52;18.80;99.90
7317;DHT22;3699;51.462;6.696;2023-08-24T03:30:19;18.60;99.90
7317;DHT22;3699;51.462;6.696;2023-08-24T03:32:46;18.60;99.90
7317;DHT22;3699;51.462;6.696;2023-08-24T03:35:12;18.70;99.90
7317;DHT22;3699;51.462;6.696;2023-08-24T03:37:40;18.90;99.90
7317;DHT22;3699;51.462;6.696;2023-08-24T03:40:07;18.70;99.90
7317;DHT22;3699;51.462;6.696;2023-08-24T03:42:34;18.70;99.90
7317;DHT22;3699;51.462;6.696;2023-08-24T03:45:03;18.70;99.90
7317;DHT22;3699;51.462;6.696;2023-08-24T03:47:30;18.80;99.90
7317;DHT22;3699;51.462;6.696;2023-08-24T03:49:57;18.70;99.90
7317;DHT22;3699;51.462;6.696;2023-08-24T03:52:24;19.20;99.90
7317;DHT22;3699;51.462;6.696;2023-08-24T03:54:51;19.10;99.90
7317;DHT22;3699;51.462;6.696;2023-08-24T03:57:18;19.10;99.90
7317;DHT22;3699;51.462;6.696;2023-08-24T03:59:44;18.90;99.90
7317;DHT22;3699;51.462;6.696;2023-08-24T04:02:12;19.20;99.90
7317;DHT22;3699;51.462;6.696;2023-08-24T04:04:39;19.30;99.90
7317;DHT22;3699;51.462;6.696;2023-08-24T04:07:06;19.40;99.90
7317;DHT22;3699;51.462;6.696;2023-08-24T04:09:33;19.20;99.90
7317;DHT22;3699;51.462;6.696;2023-08-24T04:12:00;19.00;99.90
7317;DHT22;3699;51.462;6.696;2023-08-24T04:14:26;19.00;99.90
7317;DHT22;3699;51.462;6.696;2023-08-24T04:16:53;19.20;99.90
7317;DHT22;3699;51.462;6.696;2023-08-24T04:19:22;19.30;99.90
7317;DHT22;3699;51.462;6.696;2023-08-24T04:21:48;19.10;99.90
7317;DHT22;3699;51.462;6.696;2023-08-24T04:24:15;19.40;99.90
7317;DHT22;3699;51.462;6.696;2023-08-24T04:26:42;18.60;99.90
7317;DHT22;3699;51.462;6.696;2023-08-24T04:29:09;19.70;99.90
7317;DHT22;3699;51.462;6.696;2023-08-24T04:31:35;19.30;99.90
7317;DHT22;3699;51.462;6.696;2023-08-24T04:34:03;19.40;99.90
7317;DHT22;3699;51.462;6.696;2023-08-24T04:36:31;19.30;99.90
7317;DHT22;3699;51.462;6.696;2023-08-24T04:38:58;19.40;99.90
7317;DHT22;3699;51.462;6.696;2023-08-24T04:41:25;19.40;99.90
7317;DHT22;3699;51.462;6.696;2023-08-24T04:43:52;19.40;99.90
7317;DHT22;3699;51.462;6.696;2023-08-24T04:46:19;19.30;99.90
7317;DHT22;3699;51.462;6.696;2023-08-24T04:48:45;19.40;99.90
7317;DHT22;3699;51.462;6.696;2023-08-24T04:51:12;19.40;99.90
7317;DHT22;3699;51.462;6.696;2023-08-24T04:53:40;19.30;99.90
7317;DHT22;3699;51.462;6.696;2023-08-24T04:56:07;19.90;99.90
7317;DHT22;3699;51.462;6.696;2023-08-24T04:58:34;19.40;99.90
7317;DHT22;3699;51.462;6.696;2023-08-24T05:01:01;19.50;99.90
7317;DHT22;3699;51.462;6.696;2023-08-24T05:03:28;19.40;99.90
7317;DHT22;3699;51.462;6.696;2023-08-24T05:05:54;19.40;99.90
7317;DHT22;3699;51.462;6.696;2023-08-24T05:08:21;19.40;99.90
7317;DHT22;3699;51.462;6.696;2023-08-24T05:10:49;19.40;99.90
7317;DHT22;3699;51.462;6.696;2023-08-24T05:13:16;19.50;99.90
7317;DHT22;3699;51.462;6.696;2023-08-24T05:15:43;19.40;99.90
7317;DHT22;3699;51.462;6.696;2023-08-24T05:18:09;19.40;99.90
7317;DHT22;3699;51.462;6.696;2023-08-24T05:20:36;19.40;99.90
7317;DHT22;3699;51.462;6.696;2023-08-24T05:23:03;19.50;99.90
7317;DHT22;3699;51.462;6.696;2023-08-24T05:25:30;19.50;99.90
7317;DHT22;3699;51.462;6.696;2023-08-24T05:27:58;19.30;99.90
7317;DHT22;3699;51.462;6.696;2023-08-24T05:30:25;19.60;99.90
7317;DHT22;3699;51.462;6.696;2023-08-24T05:32:54;19.70;99.90
7317;DHT22;3699;51.462;6.696;2023-08-24T05:35:21;19.50;99.90
7317;DHT22;3699;51.462;6.696;2023-08-24T05:37:48;19.80;99.90
7317;DHT22;3699;51.462;6.696;2023-08-24T05:40:14;19.80;99.90
7317;DHT22;3699;51.462;6.696;2023-08-24T05:42:41;19.50;99.90
7317;DHT22;3699;51.462;6.696;2023-08-24T05:45:10;19.90;99.90
7317;DHT22;3699;51.462;6.696;2023-08-24T05:47:37;20.00;99.90
7317;DHT22;3699;51.462;6.696;2023-08-24T05:50:05;19.70;99.90
7317;DHT22;3699;51.462;6.696;2023-08-24T05:52:32;19.70;99.90
7317;DHT22;3699;51.462;6.696;2023-08-24T05:54:58;20.10;99.90
7317;DHT22;3699;51.462;6.696;2023-08-24T05:57:25;20.10;99.90
7317;DHT22;3699;51.462;6.696;2023-08-24T05:59:52;20.20;99.90
7317;DHT22;3699;51.462;6.696;2023-08-24T06:02:20;20.10;99.90
7317;DHT22;3699;51.462;6.696;2023-08-24T06:04:47;20.30;99.90
7317;DHT22;3699;51.462;6.696;2023-08-24T06:07:16;20.00;99.90
7317;DHT22;3699;51.462;6.696;2023-08-24T06:09:43;20.30;99.90
7317;DHT22;3699;51.462;6.696;2023-08-24T06:12:10;20.40;99.90
7317;DHT22;3699;51.462;6.696;2023-08-24T06:14:37;20.70;99.90
7317;DHT22;3699;51.462;6.696;2023-08-24T06:17:03;20.60;99.90
7317;DHT22;3699;51.462;6.696;2023-08-24T06:19:32;20.70;99.90
7317;DHT22;3699;51.462;6.696;2023-08-24T06:21:58;21.00;99.90
7317;DHT22;3699;51.462;6.696;2023-08-24T06:24:25;21.50;99.90
7317;DHT22;3699;51.462;6.696;2023-08-24T06:26:52;21.90;99.90
7317;DHT22;3699;51.462;6.696;2023-08-24T06:29:18;22.20;99.90
7317;DHT22;3699;51.462;6.696;2023-08-24T06:31:45;23.20;99.90
7317;DHT22;3699;51.462;6.696;2023-08-24T06:34:12;23.60;99.90
7317;DHT22;3699;51.462;6.696;2023-08-24T06:36:40;23.90;99.90
7317;DHT22;3699;51.462;6.696;2023-08-24T06:39:07;24.30;99.90
7317;DHT22;3699;51.462;6.696;2023-08-24T06:41:34;24.80;99.90
7317;DHT22;3699;51.462;6.696;2023-08-24T06:44:01;25.10;99.90
7317;DHT22;3699;51.462;6.696;2023-08-24T06:46:28;25.50;99.90
7317;DHT22;3699;51.462;6.696;2023-08-24T06:48:55;25.50;99.90
7317;DHT22;3699;51.462;6.696;2023-08-24T06:51:22;25.50;99.90
7317;DHT22;3699;51.462;6.696;2023-08-24T06:53:50;25.40;99.90
7317;DHT22;3699;51.462;6.696;2023-08-24T06:56:17;25.60;99.90
7317;DHT22;3699;51.462;6.696;2023-08-24T06:58:44;25.80;99.90
7317;DHT22;3699;51.462;6.696;2023-08-24T07:01:11;26.10;99.90
7317;DHT22;3699;51.462;6.696;2023-08-24T07:03:38;26.40;99.90
7317;DHT22;3699;51.462;6.696;2023-08-24T07:06:05;26.80;99.90
7317;DHT22;3699;51.462;6.696;2023-08-24T07:08:37;27.00;99.90
7317;DHT22;3699;51.462;6.696;2023-08-24T07:11:05;27.20;99.90
7317;DHT22;3699;51.462;6.696;2023-08-24T07:13:32;27.50;99.90
7317;DHT22;3699;51.462;6.696;2023-08-24T07:16:00;27.60;99.90
7317;DHT22;3699;51.462;6.696;2023-08-24T07:18:28;27.70;99.90
7317;DHT22;3699;51.462;6.696;2023-08-24T07:20:56;27.90;99.90
7317;DHT22;3699;51.462;6.696;2023-08-24T07:23:23;28.00;99.70
7317;DHT22;3699;51.462;6.696;2023-08-24T07:25:49;28.00;99.90
7317;DHT22;3699;51.462;6.696;2023-08-24T07:28:17;28.00;99.90
7317;DHT22;3699;51.462;6.696;2023-08-24T07:30:45;28.00;96.40
7317;DHT22;3699;51.462;6.696;2023-08-24T07:33:19;28.00;96.20
7317;DHT22;3699;51.462;6.696;2023-08-24T07:35:49;28.00;99.50
7317;DHT22;3699;51.462;6.696;2023-08-24T07:38:16;27.90;99.90
7317;DHT22;3699;51.462;6.696;2023-08-24T07:40:42;27.80;99.90
7317;DHT22;3699;51.462;6.696;2023-08-24T07:43:10;27.80;98.80
7317;DHT22;3699;51.462;6.696;2023-08-24T07:45:38;27.80;99.90
7317;DHT22;3699;51.462;6.696;2023-08-24T07:48:06;27.60;95.80
7317;DHT22;3699;51.462;6.696;2023-08-24T07:50:33;27.50;99.90
7317;DHT22;3699;51.462;6.696;2023-08-24T07:53:00;27.20;94.90
7317;DHT22;3699;51.462;6.696;2023-08-24T07:55:26;27.10;99.90
7317;DHT22;3699;51.462;6.696;2023-08-24T07:57:53;27.10;99.90
7317;DHT22;3699;51.462;6.696;2023-08-24T08:00:20;27.10;99.90
7317;DHT22;3699;51.462;6.696;2023-08-24T08:02:51;27.20;99.90
7317;DHT22;3699;51.462;6.696;2023-08-24T08:05:18;27.30;99.90
7317;DHT22;3699;51.462;6.696;2023-08-24T08:07:45;27.40;99.90
7317;DHT22;3699;51.462;6.696;2023-08-24T08:10:12;27.60;99.90
7317;DHT22;3699;51.462;6.696;2023-08-24T08:12:40;27.70;99.90
7317;DHT22;3699;51.462;6.696;2023-08-24T08:15:08;27.90;99.70
7317;DHT22;3699;51.462;6.696;2023-08-24T08:17:34;28.10;81.80
7317;DHT22;3699;51.462;6.696;2023-08-24T08:20:03;28.20;79.20
7317;DHT22;3699;51.462;6.696;2023-08-24T08:22:30;28.10;74.00
7317;DHT22;3699;51.462;6.696;2023-08-24T08:25:00;28.10;76.60
7317;DHT22;3699;51.462;6.696;2023-08-24T08:27:28;28.10;78.90
7317;DHT22;3699;51.462;6.696;2023-08-24T08:29:55;28.20;83.80
7317;DHT22;3699;51.462;6.696;2023-08-24T08:32:22;28.30;84.70
7317;DHT22;3699;51.462;6.696;2023-08-24T08:34:52;28.30;79.40
7317;DHT22;3699;51.462;6.696;2023-08-24T08:37:21;28.40;87.30
7317;DHT22;3699;51.462;6.696;2023-08-24T08:39:47;28.60;83.00
7317;DHT22;3699;51.462;6.696;2023-08-24T08:42:14;28.60;79.80
7317;DHT22;3699;51.462;6.696;2023-08-24T08:44:42;28.70;81.20
7317;DHT22;3699;51.462;6.696;2023-08-24T08:47:11;28.70;75.90
7317;DHT22;3699;51.462;6.696;2023-08-24T08:49:38;28.80;78.50
7317;DHT22;3699;51.462;6.696;2023-08-24T08:52:05;28.90;76.90
7317;DHT22;3699;51.462;6.696;2023-08-24T08:54:33;29.00;71.70
7317;DHT22;3699;51.462;6.696;2023-08-24T08:57:01;29.10;79.50
7317;DHT22;3699;51.462;6.696;2023-08-24T08:59:28;29.20;74.90
7317;DHT22;3699;51.462;6.696;2023-08-24T09:01:56;29.30;67.60
7317;DHT22;3699;51.462;6.696;2023-08-24T09:04:24;29.40;61.90
7317;DHT22;3699;51.462;6.696;2023-08-24T09:06:51;29.50;67.00
7317;DHT22;3699;51.462;6.696;2023-08-24T09:09:18;29.50;62.70
7317;DHT22;3699;51.462;6.696;2023-08-24T09:11:46;29.60;65.00
7317;DHT22;3699;51.462;6.696;2023-08-24T09:14:13;29.70;60.80
7317;DHT22;3699;51.462;6.696;2023-08-24T09:16:41;29.80;61.10
7317;DHT22;3699;51.462;6.696;2023-08-24T09:19:11;30.00;55.10
7317;DHT22;3699;51.462;6.696;2023-08-24T09:21:38;30.20;54.70
7317;DHT22;3699;51.462;6.696;2023-08-24T09:24:07;30.20;53.70
7317;DHT22;3699;51.462;6.696;2023-08-24T09:26:37;30.20;51.70
7317;DHT22;3699;51.462;6.696;2023-08-24T09:29:13;30.30;55.30
7317;DHT22;3699;51.462;6.696;2023-08-24T09:31:41;30.40;53.30
7317;DHT22;3699;51.462;6.696;2023-08-24T09:34:10;30.40;47.70
7317;DHT22;3699;51.462;6.696;2023-08-24T09:36:37;30.20;45.10
7317;DHT22;3699;51.462;6.696;2023-08-24T09:39:04;30.10;44.20
7317;DHT22;3699;51.462;6.696;2023-08-24T09:41:43;30.00;46.20
7317;DHT22;3699;51.462;6.696;2023-08-24T09:44:11;30.00;47.50
7317;DHT22;3699;51.462;6.696;2023-08-24T09:46:39;30.00;48.20
7317;DHT22;3699;51.462;6.696;2023-08-24T09:49:07;30.00;46.70
7317;DHT22;3699;51.462;6.696;2023-08-24T09:51:34;30.00;48.60
7317;DHT22;3699;51.462;6.696;2023-08-24T09:54:05;29.90;46.90
7317;DHT22;3699;51.462;6.696;2023-08-24T09:56:35;29.90;47.70
7317;DHT22;3699;51.462;6.696;2023-08-24T09:59:09;29.80;48.70
7317;DHT22;3699;51.462;6.696;2023-08-24T10:01:40;29.90;49.00
7317;DHT22;3699;51.462;6.696;2023-08-24T10:04:09;29.90;46.70
7317;DHT22;3699;51.462;6.696;2023-08-24T10:06:36;29.90;46.70
7317;DHT22;3699;51.462;6.696;2023-08-24T10:09:06;30.00;49.10
7317;DHT22;3699;51.462;6.696;2023-08-24T10:11:35;30.00;48.50
7317;DHT22;3699;51.462;6.696;2023-08-24T10:14:07;30.00;50.70
7317;DHT22;3699;51.462;6.696;2023-08-24T10:16:39;30.10;50.10
7317;DHT22;3699;51.462;6.696;2023-08-24T10:19:07;30.10;48.00
7317;DHT22;3699;51.462;6.696;2023-08-24T10:21:35;30.20;48.00
7317;DHT22;3699;51.462;6.696;2023-08-24T10:24:03;30.20;47.50
7317;DHT22;3699;51.462;6.696;2023-08-24T10:26:32;30.20;50.90
7317;DHT22;3699;51.462;6.696;2023-08-24T10:29:00;30.10;45.90
7317;DHT22;3699;51.462;6.696;2023-08-24T10:31:28;30.20;49.30
7317;DHT22;3699;51.462;6.696;2023-08-24T10:33:57;30.10;48.90
7317;DHT22;3699;51.462;6.696;2023-08-24T10:36:24;30.10;48.40
7317;DHT22;3699;51.462;6.696;2023-08-24T10:38:56;30.10;49.70
7317;DHT22;3699;51.462;6.696;2023-08-24T10:41:26;30.20;50.50
7317;DHT22;3699;51.462;6.696;2023-08-24T10:44:04;30.10;50.00
7317;DHT22;3699;51.462;6.696;2023-08-24T10:46:35;30.10;53.40
7317;DHT22;3699;51.462;6.696;2023-08-24T10:49:05;30.10;50.30
7317;DHT22;3699;51.462;6.696;2023-08-24T10:51:43;30.10;54.20
7317;DHT22;3699;51.462;6.696;2023-08-24T10:54:10;30.10;51.50
7317;DHT22;3699;51.462;6.696;2023-08-24T10:56:38;30.50;54.20
7317;DHT22;3699;51.462;6.696;2023-08-24T10:59:15;30.10;51.30
7317;DHT22;3699;51.462;6.696;2023-08-24T11:01:43;30.10;55.10
7317;DHT22;3699;51.462;6.696;2023-08-24T11:04:21;30.10;58.20
7317;DHT22;3699;51.462;6.696;2023-08-24T11:06:53;30.10;58.10
7317;DHT22;3699;51.462;6.696;2023-08-24T11:09:20;30.00;54.80
7317;DHT22;3699;51.462;6.696;2023-08-24T11:11:57;30.00;51.40
7317;DHT22;3699;51.462;6.696;2023-08-24T11:14:24;29.80;53.50
7317;DHT22;3699;51.462;6.696;2023-08-24T11:16:52;29.80;53.50
7317;DHT22;3699;51.462;6.696;2023-08-24T11:19:21;29.70;52.50
7317;DHT22;3699;51.462;6.696;2023-08-24T11:21:48;29.60;55.90
7317;DHT22;3699;51.462;6.696;2023-08-24T11:24:16;29.40;53.10
7317;DHT22;3699;51.462;6.696;2023-08-24T11:26:44;29.30;53.90
7317;DHT22;3699;51.462;6.696;2023-08-24T11:29:11;29.30;56.60
7317;DHT22;3699;51.462;6.696;2023-08-24T11:31:38;29.50;55.70
7317;DHT22;3699;51.462;6.696;2023-08-24T11:34:05;29.00;58.50
7317;DHT22;3699;51.462;6.696;2023-08-24T11:36:43;28.80;67.30
7317;DHT22;3699;51.462;6.696;2023-08-24T11:39:15;28.70;65.50
7317;DHT22;3699;51.462;6.696;2023-08-24T11:41:45;28.50;72.90
7317;DHT22;3699;51.462;6.696;2023-08-24T11:44:14;28.50;81.50
7317;DHT22;3699;51.462;6.696;2023-08-24T11:46:40;28.40;88.30
7317;DHT22;3699;51.462;6.696;2023-08-24T11:49:08;28.40;91.50
7317;DHT22;3699;51.462;6.696;2023-08-24T11:51:36;28.40;94.00
7317;DHT22;3699;51.462;6.696;2023-08-24T11:54:04;28.70;95.70
7317;DHT22;3699;51.462;6.696;2023-08-24T11:56:34;28.50;99.90
7317;DHT22;3699;51.462;6.696;2023-08-24T11:59:11;28.50;99.90
7317;DHT22;3699;51.462;6.696;2023-08-24T12:01:39;28.50;92.20
7317;DHT22;3699;51.462;6.696;2023-08-24T12:04:07;28.90;94.80
7317;DHT22;3699;51.462;6.696;2023-08-24T12:06:34;28.80;94.90
7317;DHT22;3699;51.462;6.696;2023-08-24T12:09:06;28.80;91.20
7317;DHT22;3699;51.462;6.696;2023-08-24T12:11:35;28.90;93.40
7317;DHT22;3699;51.462;6.696;2023-08-24T12:14:03;28.90;93.20
7317;DHT22;3699;51.462;6.696;2023-08-24T12:16:32;29.00;93.00
7317;DHT22;3699;51.462;6.696;2023-08-24T12:19:00;29.00;89.20
7317;DHT22;3699;51.462;6.696;2023-08-24T12:21:29;29.10;89.30
7317;DHT22;3699;51.462;6.696;2023-08-24T12:23:56;29.00;82.70
7317;DHT22;3699;51.462;6.696;2023-08-24T12:26:25;29.00;91.00
7317;DHT22;3699;51.462;6.696;2023-08-24T12:28:52;29.00;86.10
7317;DHT22;3699;51.462;6.696;2023-08-24T12:31:19;29.00;97.40
7317;DHT22;3699;51.462;6.696;2023-08-24T12:33:56;28.90;92.10
7317;DHT22;3699;51.462;6.696;2023-08-24T12:36:23;28.80;99.90
7317;DHT22;3699;51.462;6.696;2023-08-24T12:38:50;28.60;99.90
7317;DHT22;3699;51.462;6.696;2023-08-24T12:41:17;28.40;99.90
7317;DHT22;3699;51.462;6.696;2023-08-24T12:43:45;28.30;99.90
7317;DHT22;3699;51.462;6.696;2023-08-24T12:46:12;28.20;99.90
7317;DHT22;3699;51.462;6.696;2023-08-24T12:48:38;28.10;99.90
7317;DHT22;3699;51.462;6.696;2023-08-24T12:51:05;28.00;99.90
7317;DHT22;3699;51.462;6.696;2023-08-24T12:53:32;27.90;99.90
7317;DHT22;3699;51.462;6.696;2023-08-24T12:55:58;27.80;99.90
7317;DHT22;3699;51.462;6.696;2023-08-24T12:58:25;27.80;99.90
7317;DHT22;3699;51.462;6.696;2023-08-24T13:00:53;27.80;99.90
7317;DHT22;3699;51.462;6.696;2023-08-24T13:03:20;27.80;99.90
7317;DHT22;3699;51.462;6.696;2023-08-24T13:05:47;27.80;99.90
7317;DHT22;3699;51.462;6.696;2023-08-24T13:08:15;27.80;99.90
7317;DHT22;3699;51.462;6.696;2023-08-24T13:10:42;27.80;99.90
7317;DHT22;3699;51.462;6.696;2023-08-24T13:13:08;27.90;99.90
7317;DHT22;3699;51.462;6.696;2023-08-24T13:15:35;28.00;99.90
7317;DHT22;3699;51.462;6.696;2023-08-24T13:18:04;28.00;99.90
7317;DHT22;3699;51.462;6.696;2023-08-24T13:20:30;28.10;99.90
7317;DHT22;3699;51.462;6.696;2023-08-24T13:22:57;28.10;99.90
7317;DHT22;3699;51.462;6.696;2023-08-24T13:25:24;28.00;99.90
7317;DHT22;3699;51.462;6.696;2023-08-24T13:27:51;28.10;99.90
7317;DHT22;3699;51.462;6.696;2023-08-24T13:30:19;28.20;99.90
7317;DHT22;3699;51.462;6.696;2023-08-24T13:32:45;28.30;99.90
7317;DHT22;3699;51.462;6.696;2023-08-24T13:35:13;28.60;99.90
7317;DHT22;3699;51.462;6.696;2023-08-24T13:37:40;28.40;99.90
7317;DHT22;3699;51.462;6.696;2023-08-24T13:40:07;28.40;99.90
7317;DHT22;3699;51.462;6.696;2023-08-24T13:42:34;28.50;99.90
7317;DHT22;3699;51.462;6.696;2023-08-24T13:45:01;28.40;99.90
7317;DHT22;3699;51.462;6.696;2023-08-24T13:47:28;28.50;99.90
7317;DHT22;3699;51.462;6.696;2023-08-24T13:49:55;28.50;99.90
7317;DHT22;3699;51.462;6.696;2023-08-24T13:52:23;28.50;99.90
7317;DHT22;3699;51.462;6.696;2023-08-24T13:54:50;28.70;99.90
7317;DHT22;3699;51.462;6.696;2023-08-24T13:57:17;28.50;99.90
7317;DHT22;3699;51.462;6.696;2023-08-24T13:59:44;28.50;99.90
7317;DHT22;3699;51.462;6.696;2023-08-24T14:02:10;28.50;99.90
7317;DHT22;3699;51.462;6.696;2023-08-24T14:04:38;28.40;99.90
7317;DHT22;3699;51.462;6.696;2023-08-24T14:07:04;28.40;99.90
7317;DHT22;3699;51.462;6.696;2023-08-24T14:09:33;28.30;99.90
7317;DHT22;3699;51.462;6.696;2023-08-24T14:11:59;28.20;99.90
7317;DHT22;3699;51.462;6.696;2023-08-24T14:14:26;28.10;99.90
7317;DHT22;3699;51.462;6.696;2023-08-24T14:16:56;28.00;99.90
7317;DHT22;3699;51.462;6.696;2023-08-24T14:19:23;27.90;99.90
7317;DHT22;3699;51.462;6.696;2023-08-24T14:21:51;27.90;99.90
7317;DHT22;3699;51.462;6.696;2023-08-24T14:24:17;27.90;99.90
7317;DHT22;3699;51.462;6.696;2023-08-24T14:26:45;28.10;99.90
7317;DHT22;3699;51.462;6.696;2023-08-24T14:29:13;28.00;99.90
7317;DHT22;3699;51.462;6.696;2023-08-24T14:31:40;27.70;99.90
7317;DHT22;3699;51.462;6.696;2023-08-24T14:34:06;27.70;99.90
7317;DHT22;3699;51.462;6.696;2023-08-24T14:36:33;27.60;99.90
7317;DHT22;3699;51.462;6.696;2023-08-24T14:39:01;27.80;99.90
7317;DHT22;3699;51.462;6.696;2023-08-24T14:41:28;27.40;99.90
7317;DHT22;3699;51.462;6.696;2023-08-24T14:43:57;27.40;99.90
7317;DHT22;3699;51.462;6.696;2023-08-24T14:46:23;27.40;99.90
7317;DHT22;3699;51.462;6.696;2023-08-24T14:48:50;27.30;99.90
7317;DHT22;3699;51.462;6.696;2023-08-24T14:51:17;27.40;99.90
7317;DHT22;3699;51.462;6.696;2023-08-24T14:53:44;27.20;99.90
7317;DHT22;3699;51.462;6.696;2023-08-24T14:56:11;27.40;99.90
7317;DHT22;3699;51.462;6.696;2023-08-24T14:58:38;27.40;99.90
7317;DHT22;3699;51.462;6.696;2023-08-24T15:01:06;27.30;99.90
7317;DHT22;3699;51.462;6.696;2023-08-24T15:03:33;27.10;99.90
7317;DHT22;3699;51.462;6.696;2023-08-24T15:06:01;27.00;99.90
7317;DHT22;3699;51.462;6.696;2023-08-24T15:08:29;26.90;99.90
7317;DHT22;3699;51.462;6.696;2023-08-24T15:10:57;26.90;99.90
7317;DHT22;3699;51.462;6.696;2023-08-24T15:13:24;27.00;99.90
7317;DHT22;3699;51.462;6.696;2023-08-24T15:15:53;26.60;99.90
7317;DHT22;3699;51.462;6.696;2023-08-24T15:18:21;26.30;99.90
7317;DHT22;3699;51.462;6.696;2023-08-24T15:20:48;26.50;99.90
7317;DHT22;3699;51.462;6.696;2023-08-24T15:23:23;26.40;99.90
7317;DHT22;3699;51.462;6.696;2023-08-24T15:25:50;26.40;99.90
7317;DHT22;3699;51.462;6.696;2023-08-24T15:28:16;26.30;99.90
7317;DHT22;3699;51.462;6.696;2023-08-24T15:30:43;26.10;99.90
7317;DHT22;3699;51.462;6.696;2023-08-24T15:33:10;26.00;99.90
7317;DHT22;3699;51.462;6.696;2023-08-24T15:35:39;26.10;99.90
7317;DHT22;3699;51.462;6.696;2023-08-24T15:38:06;25.90;99.90
7317;DHT22;3699;51.462;6.696;2023-08-24T15:40:33;25.80;99.90
7317;DHT22;3699;51.462;6.696;2023-08-24T15:43:00;25.60;99.90
7317;DHT22;3699;51.462;6.696;2023-08-24T15:45:27;25.80;99.90
7317;DHT22;3699;51.462;6.696;2023-08-24T15:47:54;25.60;99.90
7317;DHT22;3699;51.462;6.696;2023-08-24T15:50:21;25.40;99.90
7317;DHT22;3699;51.462;6.696;2023-08-24T15:52:50;25.70;99.90
7317;DHT22;3699;51.462;6.696;2023-08-24T15:55:17;25.40;99.90
7317;DHT22;3699;51.462;6.696;2023-08-24T15:57:44;25.20;99.90
7317;DHT22;3699;51.462;6.696;2023-08-24T16:00:12;25.40;99.90
7317;DHT22;3699;51.462;6.696;2023-08-24T16:02:39;24.60;99.90
7317;DHT22;3699;51.462;6.696;2023-08-24T16:05:07;24.70;99.90